DLH09X EDDM-LFBO
Flight info
| Callsign | DLH09X |
|---|---|
| Flight time | 1h 37m |
| Altitude | 33000 |
| Route | ALG Y109 UMTEX Y100 TRA DCT LUTIX DCT BENOT DCT NEMOS DCT NINTU DCT MEBAK DCT REPSI DCT LERGA DCT MINSO DCT NARAK |
| Aircraft | A320/M-SDE2E3FGIJ1LORWXYZ/HB1 |
Departure
| Time | 2026-05-05 15:32 |
|---|---|
| Airport | Munich Airport (EDDM) |
Arrival
| Time | 2026-05-05 17:09 |
|---|---|
| Airport | Toulouse-Blagnac Airport (LFBO) |
| Time | Latitude | Longitude | Altitude | Speed | Heading |
|---|---|---|---|---|---|
| 2026-05-05 15:08 | 48.35369 | 11.79766 | 1467 ft | 0 kts | 83° |
| 2026-05-05 15:24 | 48.35368 | 11.79745 | 1459 ft | 4 kts | 84° |
| 2026-05-05 15:24 | 48.35365 | 11.79705 | 1459 ft | 4 kts | 86° |
| 2026-05-05 15:24 | 48.35364 | 11.79678 | 1457 ft | 4 kts | 89° |
| 2026-05-05 15:24 | 48.35368 | 11.79625 | 1458 ft | 4 kts | 115° |
| 2026-05-05 15:25 | 48.35380 | 11.79604 | 1460 ft | 1 kts | 173° |
| 2026-05-05 15:25 | 48.35385 | 11.79603 | 1461 ft | 0 kts | 173° |
| 2026-05-05 15:27 | 48.35379 | 11.79604 | 1460 ft | 5 kts | 173° |
| 2026-05-05 15:27 | 48.35300 | 11.79619 | 1459 ft | 17 kts | 172° |
| 2026-05-05 15:28 | 48.35167 | 11.79641 | 1465 ft | 19 kts | 174° |
| 2026-05-05 15:28 | 48.35047 | 11.79661 | 1466 ft | 16 kts | 173° |
| 2026-05-05 15:28 | 48.34944 | 11.79678 | 1466 ft | 13 kts | 173° |
| 2026-05-05 15:28 | 48.34866 | 11.79692 | 1460 ft | 9 kts | 173° |
| 2026-05-05 15:29 | 48.34806 | 11.79768 | 1461 ft | 19 kts | 99° |
| 2026-05-05 15:29 | 48.34822 | 11.79974 | 1467 ft | 18 kts | 82° |
| 2026-05-05 15:29 | 48.34827 | 11.80129 | 1467 ft | 12 kts | 100° |
| 2026-05-05 15:29 | 48.34791 | 11.80202 | 1462 ft | 7 kts | 136° |
| 2026-05-05 15:30 | 48.34747 | 11.80239 | 1466 ft | 5 kts | 166° |
| 2026-05-05 15:30 | 48.34704 | 11.80248 | 1467 ft | 10 kts | 173° |
| 2026-05-05 15:30 | 48.34647 | 11.80259 | 1466 ft | 6 kts | 172° |
| 2026-05-05 15:30 | 48.34589 | 11.80271 | 1457 ft | 16 kts | 172° |
| 2026-05-05 15:31 | 48.34482 | 11.80269 | 1462 ft | 13 kts | 217° |
| 2026-05-05 15:31 | 48.34452 | 11.80136 | 1468 ft | 19 kts | 263° |
| 2026-05-05 15:31 | 48.34410 | 11.79610 | 1460 ft | 84 kts | 263° |
| 2026-05-05 15:31 | 48.34319 | 11.78446 | 1465 ft | 136 kts | 263° |
| 2026-05-05 15:32 | 48.34191 | 11.76881 | 1812 ft | 154 kts | 264° |
| 2026-05-05 15:32 | 48.34070 | 11.75270 | 2564 ft | 155 kts | 264° |
| 2026-05-05 15:32 | 48.33947 | 11.73607 | 3122 ft | 169 kts | 266° |
| 2026-05-05 15:32 | 48.33813 | 11.71735 | 3540 ft | 192 kts | 264° |
| 2026-05-05 15:33 | 48.33657 | 11.69630 | 3965 ft | 214 kts | 264° |
| 2026-05-05 15:33 | 48.33481 | 11.67323 | 4624 ft | 227 kts | 264° |
| 2026-05-05 15:33 | 48.33294 | 11.64928 | 5453 ft | 235 kts | 263° |
| 2026-05-05 15:33 | 48.33103 | 11.62371 | 5981 ft | 258 kts | 263° |
| 2026-05-05 15:34 | 48.32908 | 11.59634 | 6661 ft | 272 kts | 263° |
| 2026-05-05 15:34 | 48.32706 | 11.56790 | 7677 ft | 274 kts | 262° |
| 2026-05-05 15:34 | 48.32500 | 11.53930 | 8769 ft | 276 kts | 261° |
| 2026-05-05 15:34 | 48.32292 | 11.51033 | 9710 ft | 281 kts | 262° |
| 2026-05-05 15:35 | 48.32080 | 11.48109 | 10578 ft | 283 kts | 262° |
| 2026-05-05 15:35 | 48.31861 | 11.45134 | 11396 ft | 288 kts | 262° |
| 2026-05-05 15:35 | 48.31639 | 11.42136 | 12236 ft | 290 kts | 262° |
| 2026-05-05 15:35 | 48.31412 | 11.39109 | 13085 ft | 293 kts | 261° |
| 2026-05-05 15:36 | 48.31180 | 11.36048 | 13867 ft | 296 kts | 261° |
| 2026-05-05 15:36 | 48.30946 | 11.32965 | 14555 ft | 299 kts | 261° |
| 2026-05-05 15:36 | 48.30597 | 11.29872 | 15223 ft | 301 kts | 251° |
| 2026-05-05 15:36 | 48.29806 | 11.26920 | 15667 ft | 313 kts | 239° |
| 2026-05-05 15:37 | 48.28628 | 11.24059 | 15813 ft | 332 kts | 236° |
| 2026-05-05 15:37 | 48.27369 | 11.21080 | 16266 ft | 342 kts | 236° |
| 2026-05-05 15:37 | 48.26088 | 11.18047 | 16926 ft | 345 kts | 236° |
| 2026-05-05 15:37 | 48.24800 | 11.14983 | 17579 ft | 349 kts | 236° |
| 2026-05-05 15:38 | 48.23497 | 11.11885 | 18193 ft | 354 kts | 236° |
| 2026-05-05 15:38 | 48.22176 | 11.08747 | 18739 ft | 357 kts | 236° |
| 2026-05-05 15:38 | 48.20847 | 11.05593 | 19309 ft | 360 kts | 236° |
| 2026-05-05 15:38 | 48.19504 | 11.02406 | 19874 ft | 363 kts | 235° |
| 2026-05-05 15:39 | 48.18152 | 10.99196 | 20437 ft | 365 kts | 235° |
| 2026-05-05 15:39 | 48.16790 | 10.95968 | 21015 ft | 368 kts | 235° |
| 2026-05-05 15:39 | 48.15416 | 10.92719 | 21570 ft | 371 kts | 235° |
| 2026-05-05 15:39 | 48.14051 | 10.89494 | 22100 ft | 373 kts | 235° |
| 2026-05-05 15:40 | 48.12653 | 10.86200 | 22657 ft | 375 kts | 235° |
| 2026-05-05 15:40 | 48.11251 | 10.82895 | 23202 ft | 378 kts | 236° |
| 2026-05-05 15:40 | 48.10049 | 10.79372 | 23656 ft | 384 kts | 245° |
| 2026-05-05 15:40 | 48.09244 | 10.75541 | 24078 ft | 388 kts | 251° |
| 2026-05-05 15:41 | 48.08512 | 10.71642 | 24498 ft | 391 kts | 251° |
| 2026-05-05 15:41 | 48.07771 | 10.67719 | 24921 ft | 394 kts | 251° |
| 2026-05-05 15:41 | 48.07017 | 10.63766 | 25314 ft | 397 kts | 250° |
| 2026-05-05 15:41 | 48.06253 | 10.59792 | 25710 ft | 399 kts | 250° |
| 2026-05-05 15:42 | 48.05480 | 10.55792 | 26100 ft | 402 kts | 250° |
| 2026-05-05 15:42 | 48.04698 | 10.51766 | 26506 ft | 404 kts | 250° |
| 2026-05-05 15:42 | 48.03914 | 10.47723 | 26898 ft | 406 kts | 250° |
| 2026-05-05 15:42 | 48.03125 | 10.43661 | 27282 ft | 409 kts | 250° |
| 2026-05-05 15:43 | 48.02330 | 10.39574 | 27666 ft | 411 kts | 250° |
| 2026-05-05 15:43 | 48.01528 | 10.35454 | 28054 ft | 414 kts | 250° |
| 2026-05-05 15:43 | 48.00721 | 10.31317 | 28415 ft | 416 kts | 250° |
| 2026-05-05 15:43 | 47.99912 | 10.27159 | 28812 ft | 418 kts | 250° |
| 2026-05-05 15:44 | 47.99040 | 10.23006 | 29200 ft | 420 kts | 247° |
| 2026-05-05 15:44 | 47.98066 | 10.18889 | 29529 ft | 422 kts | 246° |
| 2026-05-05 15:44 | 47.97023 | 10.14791 | 29921 ft | 423 kts | 245° |
| 2026-05-05 15:44 | 47.95952 | 10.10706 | 30236 ft | 424 kts | 245° |
| 2026-05-05 15:45 | 47.94877 | 10.06609 | 30554 ft | 425 kts | 245° |
| 2026-05-05 15:45 | 47.93806 | 10.02483 | 30859 ft | 426 kts | 245° |
| 2026-05-05 15:45 | 47.92752 | 9.98356 | 31179 ft | 427 kts | 246° |
| 2026-05-05 15:45 | 47.91706 | 9.94211 | 31524 ft | 427 kts | 246° |
| 2026-05-05 15:46 | 47.90668 | 9.90077 | 31974 ft | 424 kts | 246° |
| 2026-05-05 15:46 | 47.89640 | 9.85983 | 32441 ft | 421 kts | 246° |
| 2026-05-05 15:46 | 47.88614 | 9.81904 | 32776 ft | 419 kts | 246° |
| 2026-05-05 15:47 | 47.86647 | 9.73974 | 32854 ft | 401 kts | 246° |
| 2026-05-05 15:47 | 47.84715 | 9.66219 | 32840 ft | 399 kts | 246° |
| 2026-05-05 15:48 | 47.83248 | 9.58239 | 32841 ft | 403 kts | 256° |
| 2026-05-05 15:48 | 47.82275 | 9.50046 | 32846 ft | 399 kts | 256° |
| 2026-05-05 15:49 | 47.81307 | 9.41962 | 32844 ft | 396 kts | 256° |
| 2026-05-05 15:49 | 47.80322 | 9.33908 | 32844 ft | 395 kts | 256° |
| 2026-05-05 15:50 | 47.79339 | 9.25862 | 32850 ft | 396 kts | 256° |
| 2026-05-05 15:50 | 47.78350 | 9.17777 | 32828 ft | 398 kts | 256° |
| 2026-05-05 15:51 | 47.77345 | 9.09672 | 32827 ft | 399 kts | 256° |
| 2026-05-05 15:51 | 47.76328 | 9.01554 | 32827 ft | 399 kts | 256° |
| 2026-05-05 15:52 | 47.75309 | 8.93442 | 32828 ft | 400 kts | 256° |
| 2026-05-05 15:52 | 47.74292 | 8.85374 | 32858 ft | 400 kts | 256° |
| 2026-05-05 15:53 | 47.73261 | 8.77201 | 32827 ft | 400 kts | 256° |
| 2026-05-05 15:53 | 47.72239 | 8.69131 | 32828 ft | 401 kts | 256° |
| 2026-05-05 15:54 | 47.71197 | 8.60991 | 32839 ft | 401 kts | 256° |
| 2026-05-05 15:54 | 47.70138 | 8.52804 | 32839 ft | 402 kts | 256° |
| 2026-05-05 15:55 | 47.68851 | 8.44833 | 32858 ft | 397 kts | 246° |
| 2026-05-05 15:55 | 47.66129 | 8.37844 | 32859 ft | 391 kts | 232° |
| 2026-05-05 15:56 | 47.62945 | 8.31288 | 32839 ft | 392 kts | 232° |
| 2026-05-05 15:56 | 47.59765 | 8.24732 | 32835 ft | 392 kts | 232° |
| 2026-05-05 15:57 | 47.56577 | 8.18178 | 32836 ft | 392 kts | 232° |
| 2026-05-05 15:57 | 47.53386 | 8.11633 | 32831 ft | 392 kts | 232° |
| 2026-05-05 15:58 | 47.50192 | 8.05090 | 32835 ft | 392 kts | 232° |
| 2026-05-05 15:58 | 47.47003 | 7.98575 | 32847 ft | 390 kts | 232° |
| 2026-05-05 15:59 | 47.43819 | 7.92091 | 32848 ft | 389 kts | 232° |
| 2026-05-05 15:59 | 47.40652 | 7.85647 | 32844 ft | 389 kts | 232° |
| 2026-05-05 16:00 | 47.37472 | 7.79201 | 32850 ft | 389 kts | 232° |
| 2026-05-05 16:00 | 47.34289 | 7.72759 | 32848 ft | 388 kts | 232° |
| 2026-05-05 16:01 | 47.31117 | 7.66357 | 32858 ft | 387 kts | 232° |
| 2026-05-05 16:01 | 47.27945 | 7.59974 | 32864 ft | 386 kts | 232° |
| 2026-05-05 16:02 | 47.24768 | 7.53599 | 32872 ft | 386 kts | 232° |
| 2026-05-05 16:02 | 47.21588 | 7.47225 | 32896 ft | 385 kts | 232° |
| 2026-05-05 16:03 | 47.18410 | 7.40881 | 32907 ft | 385 kts | 232° |
| 2026-05-05 16:03 | 47.15239 | 7.34610 | 32901 ft | 385 kts | 231° |
| 2026-05-05 16:04 | 47.11897 | 7.28419 | 32905 ft | 384 kts | 230° |
| 2026-05-05 16:04 | 47.08557 | 7.22372 | 32898 ft | 383 kts | 230° |
| 2026-05-05 16:05 | 47.05217 | 7.16297 | 32896 ft | 382 kts | 230° |
| 2026-05-05 16:05 | 47.01904 | 7.10221 | 32896 ft | 382 kts | 231° |
| 2026-05-05 16:06 | 46.98588 | 7.04131 | 32901 ft | 381 kts | 230° |
| 2026-05-05 16:06 | 46.95261 | 6.98066 | 32893 ft | 381 kts | 231° |
| 2026-05-05 16:07 | 46.91942 | 6.92034 | 32931 ft | 380 kts | 230° |
| 2026-05-05 16:07 | 46.88631 | 6.86033 | 32920 ft | 379 kts | 230° |
| 2026-05-05 16:08 | 46.85318 | 6.80033 | 32907 ft | 379 kts | 230° |
| 2026-05-05 16:08 | 46.82009 | 6.74048 | 32897 ft | 378 kts | 230° |
| 2026-05-05 16:09 | 46.78696 | 6.68080 | 32887 ft | 378 kts | 230° |
| 2026-05-05 16:09 | 46.75381 | 6.62127 | 32894 ft | 377 kts | 230° |
| 2026-05-05 16:10 | 46.72100 | 6.56243 | 32908 ft | 375 kts | 230° |
| 2026-05-05 16:10 | 46.68813 | 6.50354 | 32909 ft | 374 kts | 230° |
| 2026-05-05 16:11 | 46.65526 | 6.44487 | 32915 ft | 374 kts | 230° |
| 2026-05-05 16:12 | 46.58930 | 6.32739 | 32892 ft | 375 kts | 230° |
| 2026-05-05 16:13 | 46.51208 | 6.19048 | 32891 ft | 375 kts | 230° |
| 2026-05-05 16:13 | 46.47887 | 6.13207 | 32893 ft | 375 kts | 229° |
| 2026-05-05 16:14 | 46.41256 | 6.01512 | 32921 ft | 376 kts | 230° |
| 2026-05-05 16:15 | 46.34599 | 5.89838 | 32892 ft | 376 kts | 229° |
| 2026-05-05 16:16 | 46.27933 | 5.78232 | 32890 ft | 375 kts | 229° |
| 2026-05-05 16:17 | 46.22931 | 5.69526 | 32893 ft | 375 kts | 229° |
| 2026-05-05 16:18 | 46.17948 | 5.60895 | 32904 ft | 374 kts | 229° |
| 2026-05-05 16:19 | 46.13155 | 5.52040 | 32897 ft | 374 kts | 234° |
| 2026-05-05 16:19 | 46.08716 | 5.42764 | 32889 ft | 375 kts | 234° |
| 2026-05-05 16:20 | 46.02769 | 5.30416 | 32880 ft | 375 kts | 233° |
| 2026-05-05 16:22 | 45.95343 | 5.15061 | 32891 ft | 374 kts | 233° |
| 2026-05-05 16:23 | 45.89395 | 5.02816 | 32870 ft | 376 kts | 233° |
| 2026-05-05 16:23 | 45.84874 | 4.93541 | 32867 ft | 377 kts | 233° |
| 2026-05-05 16:24 | 45.81872 | 4.87393 | 32882 ft | 376 kts | 233° |
| 2026-05-05 16:25 | 45.77389 | 4.78257 | 32889 ft | 375 kts | 233° |
| 2026-05-05 16:25 | 45.72881 | 4.69108 | 32908 ft | 375 kts | 233° |
| 2026-05-05 16:26 | 45.66823 | 4.56846 | 32861 ft | 379 kts | 233° |
| 2026-05-05 16:27 | 45.63779 | 4.50702 | 32879 ft | 379 kts | 233° |
| 2026-05-05 16:27 | 45.60731 | 4.44570 | 32886 ft | 379 kts | 233° |
| 2026-05-05 16:28 | 45.57685 | 4.38437 | 32888 ft | 378 kts | 233° |
| 2026-05-05 16:28 | 45.54638 | 4.32309 | 32887 ft | 378 kts | 233° |
| 2026-05-05 16:29 | 45.51584 | 4.26201 | 32907 ft | 378 kts | 233° |
| 2026-05-05 16:29 | 45.48523 | 4.20096 | 32879 ft | 379 kts | 233° |
| 2026-05-05 16:30 | 45.45458 | 4.13997 | 32883 ft | 379 kts | 233° |
| 2026-05-05 16:30 | 45.42393 | 4.07906 | 32881 ft | 378 kts | 233° |
| 2026-05-05 16:31 | 45.39321 | 4.01822 | 32878 ft | 378 kts | 233° |
| 2026-05-05 16:31 | 45.36252 | 3.95753 | 32873 ft | 378 kts | 233° |
| 2026-05-05 16:32 | 45.33187 | 3.89688 | 32877 ft | 378 kts | 233° |
| 2026-05-05 16:32 | 45.30119 | 3.83631 | 32889 ft | 377 kts | 233° |
| 2026-05-05 16:33 | 45.27039 | 3.77576 | 32879 ft | 378 kts | 233° |
| 2026-05-05 16:33 | 45.23986 | 3.71552 | 32865 ft | 379 kts | 233° |
| 2026-05-05 16:34 | 45.20973 | 3.65409 | 32865 ft | 379 kts | 234° |
| 2026-05-05 16:34 | 45.17971 | 3.59255 | 32865 ft | 380 kts | 234° |
| 2026-05-05 16:35 | 45.14948 | 3.53118 | 32868 ft | 380 kts | 234° |
| 2026-05-05 16:35 | 45.11917 | 3.47008 | 32883 ft | 378 kts | 234° |
| 2026-05-05 16:36 | 45.08895 | 3.40932 | 32894 ft | 377 kts | 233° |
| 2026-05-05 16:36 | 45.05883 | 3.34886 | 32898 ft | 375 kts | 233° |
| 2026-05-05 16:37 | 45.02880 | 3.28853 | 32899 ft | 374 kts | 233° |
| 2026-05-05 16:37 | 44.99877 | 3.22844 | 32899 ft | 374 kts | 233° |
| 2026-05-05 16:38 | 44.96873 | 3.16846 | 32893 ft | 374 kts | 233° |
| 2026-05-05 16:38 | 44.93888 | 3.10903 | 32899 ft | 373 kts | 233° |
| 2026-05-05 16:39 | 44.90890 | 3.04940 | 32942 ft | 372 kts | 233° |
| 2026-05-05 16:39 | 44.87893 | 2.98989 | 32909 ft | 373 kts | 233° |
| 2026-05-05 16:40 | 44.84879 | 2.93022 | 32894 ft | 374 kts | 233° |
| 2026-05-05 16:40 | 44.81979 | 2.86933 | 32895 ft | 375 kts | 236° |
| 2026-05-05 16:41 | 44.79175 | 2.80719 | 32719 ft | 374 kts | 236° |
| 2026-05-05 16:41 | 44.77788 | 2.77650 | 32464 ft | 370 kts | 236° |
| 2026-05-05 16:41 | 44.76398 | 2.74603 | 32202 ft | 368 kts | 236° |
| 2026-05-05 16:42 | 44.75012 | 2.71587 | 31949 ft | 365 kts | 235° |
| 2026-05-05 16:42 | 44.73631 | 2.68600 | 31696 ft | 363 kts | 235° |
| 2026-05-05 16:42 | 44.72255 | 2.65637 | 31468 ft | 363 kts | 235° |
| 2026-05-05 16:42 | 44.70875 | 2.62666 | 31223 ft | 363 kts | 235° |
| 2026-05-05 16:43 | 44.69496 | 2.59700 | 30964 ft | 361 kts | 235° |
| 2026-05-05 16:43 | 44.68136 | 2.56776 | 30725 ft | 360 kts | 235° |
| 2026-05-05 16:43 | 44.66763 | 2.53823 | 30480 ft | 358 kts | 235° |
| 2026-05-05 16:43 | 44.65402 | 2.50895 | 30237 ft | 356 kts | 234° |
| 2026-05-05 16:44 | 44.64061 | 2.48014 | 29916 ft | 351 kts | 234° |
| 2026-05-05 16:44 | 44.62751 | 2.45203 | 29489 ft | 346 kts | 234° |
| 2026-05-05 16:44 | 44.61442 | 2.42396 | 29116 ft | 342 kts | 234° |
| 2026-05-05 16:44 | 44.60150 | 2.39631 | 28736 ft | 336 kts | 234° |
| 2026-05-05 16:45 | 44.58878 | 2.36913 | 28360 ft | 330 kts | 234° |
| 2026-05-05 16:45 | 44.57628 | 2.34243 | 27998 ft | 324 kts | 234° |
| 2026-05-05 16:45 | 44.56400 | 2.31625 | 27659 ft | 319 kts | 234° |
| 2026-05-05 16:45 | 44.55189 | 2.29044 | 27312 ft | 315 kts | 234° |
| 2026-05-05 16:46 | 44.53984 | 2.26485 | 26948 ft | 315 kts | 234° |
| 2026-05-05 16:46 | 44.52778 | 2.23926 | 26574 ft | 314 kts | 234° |
| 2026-05-05 16:46 | 44.51569 | 2.21358 | 26203 ft | 313 kts | 234° |
| 2026-05-05 16:46 | 44.50370 | 2.18813 | 25826 ft | 313 kts | 234° |
| 2026-05-05 16:47 | 44.49189 | 2.16305 | 25442 ft | 311 kts | 234° |
| 2026-05-05 16:47 | 44.47998 | 2.13779 | 25048 ft | 310 kts | 234° |
| 2026-05-05 16:47 | 44.46807 | 2.11257 | 24671 ft | 310 kts | 233° |
| 2026-05-05 16:47 | 44.45618 | 2.08747 | 24269 ft | 309 kts | 233° |
| 2026-05-05 16:48 | 44.44435 | 2.06249 | 23868 ft | 308 kts | 233° |
| 2026-05-05 16:48 | 44.43258 | 2.03760 | 23465 ft | 307 kts | 233° |
| 2026-05-05 16:48 | 44.42078 | 2.01267 | 23016 ft | 306 kts | 234° |
| 2026-05-05 16:48 | 44.40900 | 1.98782 | 22623 ft | 305 kts | 233° |
| 2026-05-05 16:49 | 44.39728 | 1.96313 | 22234 ft | 304 kts | 233° |
| 2026-05-05 16:49 | 44.38560 | 1.93854 | 21849 ft | 302 kts | 234° |
| 2026-05-05 16:49 | 44.37403 | 1.91422 | 21478 ft | 300 kts | 234° |
| 2026-05-05 16:49 | 44.36246 | 1.88990 | 21106 ft | 299 kts | 233° |
| 2026-05-05 16:50 | 44.35094 | 1.86573 | 20719 ft | 298 kts | 233° |
| 2026-05-05 16:50 | 44.33963 | 1.84203 | 20356 ft | 297 kts | 233° |
| 2026-05-05 16:50 | 44.32821 | 1.81808 | 19988 ft | 295 kts | 234° |
| 2026-05-05 16:50 | 44.31681 | 1.79418 | 19624 ft | 294 kts | 234° |
| 2026-05-05 16:51 | 44.30546 | 1.77039 | 19260 ft | 293 kts | 233° |
| 2026-05-05 16:51 | 44.29255 | 1.74858 | 18894 ft | 290 kts | 222° |
| 2026-05-05 16:51 | 44.27658 | 1.73087 | 18586 ft | 299 kts | 214° |
| 2026-05-05 16:51 | 44.25927 | 1.71439 | 18260 ft | 301 kts | 214° |
| 2026-05-05 16:52 | 44.24197 | 1.69789 | 17901 ft | 301 kts | 214° |
| 2026-05-05 16:52 | 44.22474 | 1.68142 | 17570 ft | 300 kts | 214° |
| 2026-05-05 16:52 | 44.20760 | 1.66502 | 17242 ft | 298 kts | 214° |
| 2026-05-05 16:52 | 44.19055 | 1.64867 | 16928 ft | 297 kts | 214° |
| 2026-05-05 16:53 | 44.17351 | 1.63237 | 16608 ft | 296 kts | 214° |
| 2026-05-05 16:53 | 44.15655 | 1.61619 | 16287 ft | 295 kts | 214° |
| 2026-05-05 16:53 | 44.13964 | 1.60006 | 15967 ft | 294 kts | 214° |
| 2026-05-05 16:53 | 44.12279 | 1.58400 | 15656 ft | 293 kts | 214° |
| 2026-05-05 16:54 | 44.10601 | 1.56801 | 15339 ft | 292 kts | 214° |
| 2026-05-05 16:54 | 44.08925 | 1.55204 | 15025 ft | 291 kts | 214° |
| 2026-05-05 16:54 | 44.07254 | 1.53613 | 14705 ft | 290 kts | 214° |
| 2026-05-05 16:54 | 44.05590 | 1.52032 | 14387 ft | 289 kts | 215° |
| 2026-05-05 16:55 | 44.03930 | 1.50457 | 14071 ft | 288 kts | 215° |
| 2026-05-05 16:55 | 44.02298 | 1.48910 | 13773 ft | 288 kts | 215° |
| 2026-05-05 16:55 | 44.00650 | 1.47347 | 13438 ft | 287 kts | 215° |
| 2026-05-05 16:55 | 43.98991 | 1.45817 | 13126 ft | 286 kts | 210° |
| 2026-05-05 16:56 | 43.97155 | 1.44762 | 12816 ft | 287 kts | 197° |
| 2026-05-05 16:56 | 43.95196 | 1.44246 | 12498 ft | 287 kts | 192° |
| 2026-05-05 16:56 | 43.93247 | 1.43784 | 12190 ft | 286 kts | 192° |
| 2026-05-05 16:56 | 43.91289 | 1.43319 | 11876 ft | 285 kts | 192° |
| 2026-05-05 16:57 | 43.89336 | 1.42854 | 11573 ft | 284 kts | 192° |
| 2026-05-05 16:57 | 43.87389 | 1.42387 | 11264 ft | 283 kts | 192° |
| 2026-05-05 16:57 | 43.85448 | 1.41932 | 10955 ft | 282 kts | 190° |
| 2026-05-05 16:57 | 43.83482 | 1.41952 | 10646 ft | 286 kts | 174° |
| 2026-05-05 16:58 | 43.81576 | 1.42756 | 10327 ft | 289 kts | 157° |
| 2026-05-05 16:58 | 43.79884 | 1.44287 | 10019 ft | 292 kts | 144° |
| 2026-05-05 16:58 | 43.78292 | 1.46024 | 9680 ft | 291 kts | 145° |
| 2026-05-05 16:58 | 43.76695 | 1.47749 | 9350 ft | 290 kts | 145° |
| 2026-05-05 16:59 | 43.75099 | 1.49468 | 9030 ft | 290 kts | 145° |
| 2026-05-05 16:59 | 43.73510 | 1.51174 | 8708 ft | 289 kts | 145° |
| 2026-05-05 16:59 | 43.71921 | 1.52877 | 8392 ft | 288 kts | 144° |
| 2026-05-05 16:59 | 43.70340 | 1.54570 | 8082 ft | 287 kts | 144° |
| 2026-05-05 17:00 | 43.68761 | 1.56259 | 7772 ft | 287 kts | 144° |
| 2026-05-05 17:00 | 43.67719 | 1.57374 | 7560 ft | 286 kts | 144° |
| 2026-05-05 17:00 | 43.66149 | 1.59057 | 7248 ft | 285 kts | 144° |
| 2026-05-05 17:00 | 43.64584 | 1.60736 | 6934 ft | 284 kts | 144° |
| 2026-05-05 17:01 | 43.62943 | 1.62223 | 6625 ft | 281 kts | 157° |
| 2026-05-05 17:01 | 43.61102 | 1.63034 | 6318 ft | 276 kts | 173° |
| 2026-05-05 17:01 | 43.59218 | 1.63109 | 6050 ft | 265 kts | 189° |
| 2026-05-05 17:01 | 43.57430 | 1.62799 | 5850 ft | 255 kts | 190° |
| 2026-05-05 17:02 | 43.55685 | 1.62507 | 5692 ft | 251 kts | 190° |
| 2026-05-05 17:02 | 43.53953 | 1.62221 | 5557 ft | 251 kts | 189° |
| 2026-05-05 17:02 | 43.52215 | 1.61937 | 5278 ft | 250 kts | 189° |
| 2026-05-05 17:02 | 43.50507 | 1.61577 | 4952 ft | 246 kts | 199° |
| 2026-05-05 17:03 | 43.49015 | 1.60508 | 4618 ft | 240 kts | 223° |
| 2026-05-05 17:03 | 43.47972 | 1.58767 | 4281 ft | 234 kts | 245° |
| 2026-05-05 17:03 | 43.47480 | 1.56691 | 4084 ft | 223 kts | 260° |
| 2026-05-05 17:03 | 43.47373 | 1.54645 | 3977 ft | 208 kts | 277° |
| 2026-05-05 17:04 | 43.47737 | 1.52799 | 3880 ft | 195 kts | 296° |
| 2026-05-05 17:04 | 43.48458 | 1.51287 | 3807 ft | 185 kts | 310° |
| 2026-05-05 17:04 | 43.49422 | 1.50149 | 3600 ft | 181 kts | 320° |
| 2026-05-05 17:04 | 43.50421 | 1.49118 | 3363 ft | 179 kts | 320° |
| 2026-05-05 17:05 | 43.51414 | 1.48089 | 3125 ft | 178 kts | 320° |
| 2026-05-05 17:05 | 43.52395 | 1.47074 | 2893 ft | 177 kts | 320° |
| 2026-05-05 17:05 | 43.53377 | 1.46057 | 2645 ft | 176 kts | 320° |
| 2026-05-05 17:05 | 43.54334 | 1.45067 | 2417 ft | 167 kts | 320° |
| 2026-05-05 17:06 | 43.55229 | 1.44139 | 2218 ft | 152 kts | 319° |
| 2026-05-05 17:06 | 43.56029 | 1.43311 | 2006 ft | 137 kts | 319° |
| 2026-05-05 17:06 | 43.56770 | 1.42541 | 1828 ft | 131 kts | 318° |
| 2026-05-05 17:06 | 43.57488 | 1.41794 | 1661 ft | 129 kts | 317° |
| 2026-05-05 17:07 | 43.58207 | 1.41047 | 1469 ft | 130 kts | 319° |
| 2026-05-05 17:07 | 43.58925 | 1.40301 | 1282 ft | 128 kts | 319° |
| 2026-05-05 17:07 | 43.59638 | 1.39560 | 1104 ft | 129 kts | 318° |
| 2026-05-05 17:07 | 43.60372 | 1.38797 | 931 ft | 133 kts | 319° |
| 2026-05-05 17:08 | 43.61109 | 1.38031 | 744 ft | 132 kts | 319° |
| 2026-05-05 17:08 | 43.61840 | 1.37271 | 573 ft | 131 kts | 317° |
| 2026-05-05 17:08 | 43.62524 | 1.36551 | 489 ft | 108 kts | 324° |
| 2026-05-05 17:08 | 43.62995 | 1.36065 | 490 ft | 68 kts | 322° |
| 2026-05-05 17:09 | 43.63329 | 1.35706 | 491 ft | 54 kts | 322° |
| 2026-05-05 17:09 | 43.63552 | 1.35522 | 494 ft | 26 kts | 1° |
| 2026-05-05 17:09 | 43.63631 | 1.35592 | 489 ft | 12 kts | 46° |
| 2026-05-05 17:09 | 43.63677 | 1.35679 | 487 ft | 11 kts | 56° |
| 2026-05-05 17:10 | 43.63716 | 1.35753 | 493 ft | 8 kts | 53° |
| 2026-05-05 17:10 | 43.63748 | 1.35813 | 486 ft | 7 kts | 53° |
| 2026-05-05 17:10 | 43.63780 | 1.35870 | 490 ft | 8 kts | 53° |
| 2026-05-05 17:10 | 43.63816 | 1.35949 | 494 ft | 14 kts | 75° |
| 2026-05-05 17:11 | 43.63738 | 1.36071 | 495 ft | 21 kts | 143° |
| 2026-05-05 17:11 | 43.63616 | 1.36200 | 487 ft | 23 kts | 143° |
| 2026-05-05 17:11 | 43.63482 | 1.36338 | 493 ft | 25 kts | 143° |
| 2026-05-05 17:11 | 43.63334 | 1.36487 | 488 ft | 27 kts | 142° |
| 2026-05-05 17:12 | 43.63194 | 1.36637 | 489 ft | 26 kts | 143° |
| 2026-05-05 17:12 | 43.63045 | 1.36790 | 490 ft | 25 kts | 143° |
| 2026-05-05 17:12 | 43.62902 | 1.36939 | 488 ft | 27 kts | 143° |
| 2026-05-05 17:12 | 43.62836 | 1.37071 | 486 ft | 14 kts | 69° |
| 2026-05-05 17:13 | 43.62907 | 1.37219 | 491 ft | 11 kts | 96° |
| 2026-05-05 17:13 | 43.62862 | 1.37295 | 493 ft | 10 kts | 142° |
| 2026-05-05 17:13 | 43.62802 | 1.37372 | 487 ft | 12 kts | 111° |
| 2026-05-05 17:13 | 43.62822 | 1.37479 | 488 ft | 11 kts | 68° |
| 2026-05-05 17:14 | 43.62873 | 1.37531 | 493 ft | 9 kts | 5° |
| 2026-05-05 17:14 | 43.62917 | 1.37538 | 492 ft | 4 kts | 4° |
| 2026-05-05 17:14 | 43.62920 | 1.37538 | 494 ft | 0 kts | 3° |